Hinds, Patrick
CanadaManBorn 19651997 – 2025Runner id 20331
Events
40
1997 – 2025
Best pace
10.105
km/h · 1998
Best finish
17th
of 115 · 2005
Distance raced
2,971
km · splits not double-counted
Pace over time
km/h · higher is faster
Pace over time: 40 races from 1997 to 2025, ranging from 2.08 to 10.16 kilometres per hour, where higher is faster. A second, age-graded series is drawn above it; the gap between the two is the age credit.
- Actual pace
- Age-graded pace
Results
| Date | Event | Distance | Result | Pace km/h | Placing |
|---|---|---|---|---|---|
| 1997-09-13 | McKenzie River 50 Mile Trail RunUnited States | 50mi | 8:31:55 h | 9.431 | 7/30 |
| 1998-06-06 | 50mi | 8:40:00 h | 9.285 | 17/61 | |
| 1998-07-18 | 100mi | 22:00:23 h | 7.313 | 44/172 | |
| 1998-11-07 | 100km | 9:53:45 h | 10.105 | 5/11 | |
| 1999-03-20 | 24h | 120.700 km | 5.029 | 14/53 | |
| 1999-07-10 | 30mi | 7:16:33 h | 6.636 | 56/154 | |
| 2000-01-22 | 50km | 5:41:01 h | 8.797 | 29/125 | |
| 2000-07-08 | 30mi | 7:30:50 h | 6.425 | 80/158 | |
| 2000-08-26 | 100mi | 27:54:00 h | 5.768 | 9/28 | |
| 2001-10-06 | 100mi | 27:00:00 h | 5.961 | 3/9 | |
| 2002-01-12 | Bridle Trails Winter Running FestivalUnited States | 50km | 5:16:14 h | 9.487 | 7/37 |
| 2002-02-02 | 100mi | 20:53:25 h | 7.704 | 30/91 | |
| 2003-02-15 | 50km | 5:30:07 h | 9.088 | 24/87 | |
| 2003-03-22 | 24h | 61.155 km | 2.548 | 32/47 | |
| 2003-07-12 | 30mi | 7:27:25 h | 6.475 | 78/163 | |
| 2004-05-22 | Watershed Preserve 12 Hr Trail RaceUnited States | 12h | 51.880 km | 4.323 | 14/17 |
| 2004-07-31 | 50mi | 10:14:42 h | 7.854 | 36/79 | |
| 2005-01-08 | 50km | 6:04:32 h | 8.230 | 17/115 | |
| 2005-03-19 | 24h | 50.050 km | 2.085 | 35/38 | |
| 2005-04-02 | 50mi | 9:48:18 h | 8.207 | 19/110 | |
| 2006-03-25 | 100km | 12:46:15 h | 7.830 | 14/25 | |
| 2007-01-01 | 50km | 5:07:00 h | 9.772 | 23/51 | |
| 2007-03-31 | 50mi | 10:52:40 h | 7.397 | 40/107 | |
| 2007-08-10 | 100mi | 25:34:41 h | 6.292 | 7/13 | |
| 2007-11-03 | 50km | 5:06:50 h | 9.777 | 11/50 | |
| 2008-05-17 | Watershed Preserve 12 Hr Trail RaceUnited States | 12h | 51.901 km | 4.325 | 49/53 |
| 2010-06-26 | 50mi | 12:26:21 h | 6.469 | 23/30 | |
| 2012-04-22 | 50km | 5:58:08 h | 8.377 | 39/67 | |
| 2012-05-19 | 12h | 51.901 km | 4.325 | 48/60 | |
| 2012-10-06 | 100km | 16:52:00 h | 5.929 | 19/29 | |
| 2013-08-03 | HURL Elkhorn 50 km Endurance RunUnited States | 50km | 9:44:27 h | 5.133 | 48/63 |
| 2013-11-02 | 50km | 7:43:59 h | 6.466 | 2/3 | |
| 2014-07-19 | 50km | 9:10:56 h | 5.445 | 14/14 | |
| 2015-08-08 | 50km | 8:10:53 h | 6.111 | 5/11 | |
| 2018-09-02 | 51km | 7:33:37 h | 6.746 | 11/19 | |
| 2022-11-19 | 50km | 7:15:01 h | 6.896 | 265/347 | |
| 2023-09-30 | 50km | 8:13:43 h | 6.076 | 6/6 | |
| 2023-11-18 | 50km | 7:40:40 h | 6.512 | 375/422 | |
| 2024-11-16 | 50km | 7:33:00 h | 6.623 | 341/412 | |
| 2025-09-20 | 50km | 8:40:49 h | 5.760 | 67/80 |